createdAt,value
2023-04-12T00:00:26.104Z,23.71
2023-04-12T00:01:26.088Z,23.71
2023-04-12T00:02:26.210Z,23.70
2023-04-12T00:03:26.228Z,23.71
2023-04-12T00:04:26.211Z,23.70
2023-04-12T00:05:26.100Z,23.70
2023-04-12T00:06:26.033Z,23.70
2023-04-12T00:07:26.072Z,23.70
2023-04-12T00:08:26.005Z,23.70
2023-04-12T00:09:26.087Z,23.70
2023-04-12T00:10:26.054Z,23.70
2023-04-12T00:11:26.010Z,23.70
2023-04-12T00:12:26.031Z,23.70
2023-04-12T00:13:26.019Z,23.70
2023-04-12T00:14:25.986Z,23.69
2023-04-12T00:15:26.033Z,23.69
2023-04-12T00:16:26.125Z,23.69
2023-04-12T00:17:26.017Z,23.69
2023-04-12T00:18:26.278Z,23.69
2023-04-12T00:19:25.958Z,23.69
2023-04-12T00:20:25.962Z,23.69
2023-04-12T00:21:25.938Z,23.68
2023-04-12T00:22:25.975Z,23.68
2023-04-12T00:23:25.934Z,23.68
2023-04-12T00:24:25.940Z,23.68
2023-04-12T00:25:25.948Z,23.67
2023-04-12T00:26:25.934Z,23.68
2023-04-12T00:27:25.924Z,23.68
2023-04-12T00:28:25.926Z,23.68
2023-04-12T00:29:25.889Z,23.68
2023-04-12T00:30:25.902Z,23.67
2023-04-12T00:31:25.894Z,23.68
2023-04-12T00:32:25.897Z,23.67
2023-04-12T00:33:25.898Z,23.67
2023-04-12T00:34:25.864Z,23.67
2023-04-12T00:35:25.862Z,23.67
2023-04-12T00:36:25.812Z,23.67
2023-04-12T00:37:25.877Z,23.66
2023-04-12T00:38:25.854Z,23.66
2023-04-12T00:39:25.860Z,23.66
2023-04-12T00:40:25.813Z,23.66
2023-04-12T00:41:25.812Z,23.66
2023-04-12T00:42:25.823Z,23.66
2023-04-12T00:43:25.806Z,23.66
2023-04-12T00:44:25.820Z,23.66
2023-04-12T00:45:25.824Z,23.66
2023-04-12T00:46:25.815Z,23.65
2023-04-12T00:47:25.813Z,23.66
2023-04-12T00:48:25.802Z,23.65
2023-04-12T00:49:25.738Z,23.65
2023-04-12T00:50:25.778Z,23.65
2023-04-12T00:51:25.773Z,23.65
2023-04-12T00:52:25.766Z,23.65
2023-04-12T00:53:25.752Z,23.65
2023-04-12T00:54:25.735Z,23.65
2023-04-12T00:55:25.752Z,23.65
2023-04-12T00:56:25.711Z,23.64
2023-04-12T00:57:25.714Z,23.65
2023-04-12T00:58:25.673Z,23.64
2023-04-12T00:59:25.677Z,23.64
2023-04-12T01:00:25.715Z,23.63
2023-04-12T01:01:25.651Z,23.63
2023-04-12T01:02:25.941Z,23.63
2023-04-12T01:03:25.798Z,23.63
2023-04-12T01:04:25.657Z,23.63
2023-04-12T01:05:25.704Z,23.62
2023-04-12T01:06:25.677Z,23.63
2023-04-12T01:07:25.633Z,23.63
2023-04-12T01:08:25.688Z,23.63
2023-04-12T01:09:25.629Z,23.62
2023-04-12T01:10:25.668Z,23.63
2023-04-12T01:11:25.605Z,23.61
2023-04-12T01:12:25.631Z,23.62
2023-04-12T01:13:25.605Z,23.61
2023-04-12T01:14:25.577Z,23.62
2023-04-12T01:15:25.591Z,23.61
2023-04-12T01:16:25.668Z,23.62
2023-04-12T01:17:25.567Z,23.61
2023-04-12T01:18:25.573Z,23.61
2023-04-12T01:19:25.568Z,23.61
2023-04-12T01:20:25.542Z,23.61
2023-04-12T01:21:25.524Z,23.61
2023-04-12T01:22:25.532Z,23.60
2023-04-12T01:23:25.487Z,23.61
2023-04-12T01:24:25.539Z,23.60
2023-04-12T01:25:25.529Z,23.61
2023-04-12T01:26:25.625Z,23.60
2023-04-12T01:27:25.512Z,23.60
2023-04-12T01:28:25.496Z,23.59
2023-04-12T01:29:25.469Z,23.60
2023-04-12T01:30:25.510Z,23.60
2023-04-12T01:31:25.571Z,23.59
2023-04-12T01:32:25.521Z,23.59
2023-04-12T01:33:25.450Z,23.60
2023-04-12T01:34:25.457Z,23.59
2023-04-12T01:35:25.449Z,23.59
2023-04-12T01:36:25.506Z,23.58
2023-04-12T01:37:25.470Z,23.59
2023-04-12T01:38:25.481Z,23.59
2023-04-12T01:39:25.429Z,23.58
2023-04-12T01:40:25.435Z,23.58
2023-04-12T01:41:25.424Z,23.58
2023-04-12T01:42:25.411Z,23.58
2023-04-12T01:43:25.395Z,23.57
2023-04-12T01:44:25.375Z,23.58
2023-04-12T01:45:25.387Z,23.57
2023-04-12T01:46:25.341Z,23.58
2023-04-12T01:47:25.500Z,23.57
2023-04-12T01:48:25.369Z,23.57
2023-04-12T01:49:25.334Z,23.57
2023-04-12T01:50:25.358Z,23.57
2023-04-12T01:51:25.354Z,23.57
2023-04-12T01:52:25.317Z,23.57
2023-04-12T01:53:25.309Z,23.57
2023-04-12T01:54:25.329Z,23.57
2023-04-12T01:55:25.312Z,23.57
2023-04-12T01:56:25.303Z,23.57
2023-04-12T01:57:25.301Z,23.57
2023-04-12T01:58:25.302Z,23.56
2023-04-12T01:59:25.301Z,23.56
2023-04-12T02:00:25.309Z,23.56
2023-04-12T02:01:25.407Z,23.56
2023-04-12T02:02:25.343Z,23.55
2023-04-12T02:03:25.385Z,23.56
2023-04-12T02:04:25.248Z,23.55
2023-04-12T02:05:25.236Z,23.55
2023-04-12T02:06:25.237Z,23.56
2023-04-12T02:07:25.228Z,23.55
2023-04-12T02:08:25.210Z,23.55
2023-04-12T02:09:25.239Z,23.55
2023-04-12T02:10:25.224Z,23.55
2023-04-12T02:11:25.207Z,23.54
2023-04-12T02:12:25.193Z,23.55
2023-04-12T02:13:25.190Z,23.55
2023-04-12T02:14:25.203Z,23.54
2023-04-12T02:15:25.173Z,23.54
2023-04-12T02:16:25.213Z,23.54
2023-04-12T02:17:25.151Z,23.54
2023-04-12T02:18:25.181Z,23.54
2023-04-12T02:19:25.165Z,23.55
2023-04-12T02:20:25.217Z,23.54
2023-04-12T02:21:25.206Z,23.53
2023-04-12T02:22:25.148Z,23.54
2023-04-12T02:23:25.128Z,23.54
2023-04-12T02:24:25.141Z,23.53
2023-04-12T02:25:25.143Z,23.54
2023-04-12T02:26:25.115Z,23.54
2023-04-12T02:27:25.121Z,23.54
2023-04-12T02:28:25.082Z,23.53
2023-04-12T02:29:25.208Z,23.54
2023-04-12T02:30:25.099Z,23.53
2023-04-12T02:31:25.118Z,23.53
2023-04-12T02:32:25.096Z,23.53
2023-04-12T02:33:25.052Z,23.52
2023-04-12T02:34:25.056Z,23.53
2023-04-12T02:35:25.075Z,23.52
2023-04-12T02:36:25.079Z,23.53
2023-04-12T02:37:25.023Z,23.53
2023-04-12T02:38:25.080Z,23.52
2023-04-12T02:39:25.100Z,23.52
2023-04-12T02:40:25.071Z,23.53
2023-04-12T02:41:24.993Z,23.52
2023-04-12T02:42:25.087Z,23.52
2023-04-12T02:43:25.062Z,23.52
2023-04-12T02:44:25.529Z,23.51
2023-04-12T02:45:25.026Z,23.51
2023-04-12T02:46:25.186Z,23.51
2023-04-12T02:47:25.111Z,23.52
2023-04-12T02:48:25.077Z,23.52
2023-04-12T02:49:25.086Z,23.51
2023-04-12T02:50:25.092Z,23.51
2023-04-12T02:51:25.116Z,23.51
2023-04-12T02:52:25.085Z,23.51
2023-04-12T02:53:25.089Z,23.51
2023-04-12T02:54:25.122Z,23.51
2023-04-12T02:55:25.094Z,23.51
2023-04-12T02:56:25.105Z,23.50
2023-04-12T02:57:25.123Z,23.50
2023-04-12T02:58:25.168Z,23.50
2023-04-12T02:59:25.238Z,23.50
2023-04-12T03:00:25.210Z,23.50
2023-04-12T03:01:25.224Z,23.50
2023-04-12T03:02:25.318Z,23.49
2023-04-12T03:03:25.350Z,23.50
2023-04-12T03:04:25.258Z,23.50
2023-04-12T03:05:25.236Z,23.49
2023-04-12T03:06:25.245Z,23.49
2023-04-12T03:07:25.259Z,23.49
2023-04-12T03:08:25.263Z,23.50
2023-04-12T03:09:25.290Z,23.49
2023-04-12T03:10:25.265Z,23.49
2023-04-12T03:11:25.277Z,23.49
2023-04-12T03:12:25.291Z,23.49
2023-04-12T03:13:25.299Z,23.50
2023-04-12T03:14:25.335Z,23.49
2023-04-12T03:15:25.389Z,23.49
2023-04-12T03:16:25.308Z,23.49
2023-04-12T03:17:25.381Z,23.48
2023-04-12T03:18:25.353Z,23.48
2023-04-12T03:19:25.357Z,23.48
2023-04-12T03:20:25.335Z,23.48
2023-04-12T03:21:25.411Z,23.48
2023-04-12T03:22:25.379Z,23.48
2023-04-12T03:23:25.370Z,23.47
2023-04-12T03:24:25.419Z,23.47
2023-04-12T03:25:25.454Z,23.47
2023-04-12T03:26:25.406Z,23.47
2023-04-12T03:27:25.434Z,23.47
2023-04-12T03:28:25.452Z,23.47
2023-04-12T03:29:25.413Z,23.47
2023-04-12T03:30:25.508Z,23.47
2023-04-12T03:31:25.595Z,23.46
2023-04-12T03:32:25.525Z,23.47
2023-04-12T03:33:25.514Z,23.47
2023-04-12T03:34:25.535Z,23.47
2023-04-12T03:35:25.538Z,23.46
2023-04-12T03:36:25.496Z,23.46
2023-04-12T03:37:25.621Z,23.45
2023-04-12T03:38:25.561Z,23.46
2023-04-12T03:39:25.576Z,23.46
2023-04-12T03:40:25.581Z,23.46
2023-04-12T03:41:25.700Z,23.46
2023-04-12T03:42:33.250Z,23.46
2023-04-12T03:43:26.577Z,23.45
2023-04-12T03:44:25.549Z,23.46
2023-04-12T03:45:25.614Z,23.46
2023-04-12T03:46:25.594Z,23.45
2023-04-12T03:47:25.593Z,23.45
2023-04-12T03:48:25.513Z,23.45
2023-04-12T03:49:25.548Z,23.44
2023-04-12T03:50:25.597Z,23.45
2023-04-12T03:51:25.483Z,23.45
2023-04-12T03:52:25.551Z,23.45
2023-04-12T03:53:25.484Z,23.45
2023-04-12T03:54:25.532Z,23.45
2023-04-12T03:55:25.479Z,23.45
2023-04-12T03:56:25.480Z,23.44
2023-04-12T03:57:25.493Z,23.44
2023-04-12T03:58:25.480Z,23.43
2023-04-12T03:59:25.512Z,23.44
2023-04-12T04:00:25.428Z,23.43
2023-04-12T04:01:25.451Z,23.44
2023-04-12T04:02:25.706Z,23.43
2023-04-12T04:03:25.471Z,23.41
2023-04-12T04:04:25.663Z,23.40
2023-04-12T04:05:25.443Z,23.38
2023-04-12T04:06:25.447Z,23.37
2023-04-12T04:07:25.453Z,23.37
2023-04-12T04:08:25.400Z,23.38
2023-04-12T04:09:25.397Z,23.36
2023-04-12T04:10:25.470Z,23.35
2023-04-12T04:11:25.485Z,23.34
2023-04-12T04:12:25.491Z,23.34
2023-04-12T04:13:25.533Z,23.33
2023-04-12T04:14:25.533Z,23.33
2023-04-12T04:15:25.614Z,23.33
2023-04-12T04:16:25.642Z,23.32
2023-04-12T04:17:25.686Z,23.30
2023-04-12T04:18:25.666Z,23.28
2023-04-12T04:19:25.736Z,23.27
2023-04-12T04:20:27.742Z,23.28
2023-04-12T04:21:25.855Z,23.28
2023-04-12T04:22:25.813Z,23.27
2023-04-12T04:23:25.882Z,23.27
2023-04-12T04:24:25.878Z,23.27
2023-04-12T04:25:25.977Z,23.26
2023-04-12T04:26:26.003Z,23.26
2023-04-12T04:27:26.000Z,23.26
2023-04-12T04:28:26.069Z,23.26
2023-04-12T04:29:26.138Z,23.27
2023-04-12T04:30:26.124Z,23.26
2023-04-12T04:31:26.188Z,23.28
2023-04-12T04:32:26.216Z,23.28
2023-04-12T04:33:26.285Z,23.28
2023-04-12T04:34:26.260Z,23.29
2023-04-12T04:35:26.268Z,23.29
2023-04-12T04:36:26.330Z,23.30
2023-04-12T04:37:26.380Z,23.30
2023-04-12T04:38:26.390Z,23.31
2023-04-12T04:39:26.387Z,23.31
2023-04-12T04:40:26.399Z,23.32
2023-04-12T04:41:26.408Z,23.32
2023-04-12T04:42:26.477Z,23.33
2023-04-12T04:43:26.454Z,23.32
2023-04-12T04:44:26.591Z,23.34
2023-04-12T04:45:26.693Z,23.33
2023-04-12T04:46:26.548Z,23.33
2023-04-12T04:47:26.561Z,23.33
2023-04-12T04:48:26.554Z,23.33
2023-04-12T04:49:26.607Z,23.33
2023-04-12T04:50:26.611Z,23.33
2023-04-12T04:51:26.681Z,23.34
2023-04-12T04:52:26.610Z,23.34
2023-04-12T04:53:26.599Z,23.34
2023-04-12T04:54:26.640Z,23.34
2023-04-12T04:55:26.668Z,23.34
2023-04-12T04:56:26.714Z,23.34
2023-04-12T04:57:26.760Z,23.34
2023-04-12T04:58:26.731Z,23.33
2023-04-12T04:59:26.733Z,23.33
2023-04-12T05:00:26.737Z,23.33
2023-04-12T05:01:26.779Z,23.32
2023-04-12T05:02:26.825Z,23.32
2023-04-12T05:03:28.823Z,23.32
2023-04-12T05:04:26.962Z,23.32
2023-04-12T05:05:26.764Z,23.32
2023-04-12T05:06:26.887Z,23.32
2023-04-12T05:07:26.757Z,23.31
2023-04-12T05:08:26.790Z,23.32
2023-04-12T05:09:26.748Z,23.32
2023-04-12T05:10:26.715Z,23.32
2023-04-12T05:11:26.759Z,23.32
2023-04-12T05:12:26.743Z,23.32
2023-04-12T05:13:26.821Z,23.33
2023-04-12T05:14:37.547Z,23.33
2023-04-12T05:15:27.708Z,23.33
2023-04-12T05:16:26.852Z,23.32
2023-04-12T05:17:26.698Z,23.33
2023-04-12T05:18:26.653Z,23.33
2023-04-12T05:19:26.778Z,23.34
2023-04-12T05:20:26.664Z,23.33
2023-04-12T05:21:26.658Z,23.33
2023-04-12T05:22:26.720Z,23.33
2023-04-12T05:23:26.706Z,23.33
2023-04-12T05:24:26.743Z,23.33
2023-04-12T05:25:27.045Z,23.33
2023-04-12T05:26:26.743Z,23.33
2023-04-12T05:27:26.814Z,23.33
2023-04-12T05:28:26.824Z,23.33
2023-04-12T05:29:26.909Z,23.33
2023-04-12T05:30:26.883Z,23.33
2023-04-12T05:31:27.070Z,23.32
2023-04-12T05:32:26.914Z,23.34
2023-04-12T05:33:26.958Z,23.34
2023-04-12T05:34:27.069Z,23.34
2023-04-12T05:35:27.011Z,23.34
2023-04-12T05:36:27.179Z,23.34
2023-04-12T05:37:27.029Z,23.35
2023-04-12T05:38:27.031Z,23.38
2023-04-12T05:39:27.107Z,23.39
2023-04-12T05:40:27.115Z,23.42
2023-04-12T05:41:27.114Z,23.45
2023-04-12T05:42:27.131Z,23.46
2023-04-12T05:43:27.061Z,23.49
2023-04-12T05:44:27.134Z,23.51
2023-04-12T05:45:27.136Z,23.53
2023-04-12T05:46:27.247Z,23.55
2023-04-12T05:47:27.182Z,23.59
2023-04-12T05:48:27.335Z,23.64
2023-04-12T05:49:27.627Z,23.68
2023-04-12T05:50:27.301Z,23.73
2023-04-12T05:51:40.011Z,23.77
2023-04-12T05:52:28.147Z,23.79
2023-04-12T05:53:27.324Z,23.81
2023-04-12T05:54:27.212Z,23.84
2023-04-12T05:55:27.177Z,23.85
2023-04-12T05:56:27.220Z,23.86
2023-04-12T05:57:27.257Z,23.87
2023-04-12T05:58:27.144Z,23.87
2023-04-12T05:59:27.272Z,23.88
2023-04-12T06:00:27.198Z,23.88
2023-04-12T06:01:27.190Z,23.88
2023-04-12T06:02:27.421Z,23.89
2023-04-12T06:03:27.414Z,23.90
2023-04-12T06:04:42.088Z,23.90
2023-04-12T06:05:28.409Z,23.89
2023-04-12T06:06:27.314Z,23.89
2023-04-12T06:07:27.633Z,23.89
2023-04-12T06:08:27.310Z,23.88
2023-04-12T06:09:27.319Z,23.89
2023-04-12T06:10:27.374Z,23.88
2023-04-12T06:11:27.275Z,23.87
2023-04-12T06:12:27.320Z,23.89
2023-04-12T06:13:27.347Z,23.90
2023-04-12T06:14:27.356Z,23.90
2023-04-12T06:15:27.479Z,23.91
2023-04-12T06:16:27.440Z,23.93
2023-04-12T06:17:27.377Z,23.92
2023-04-12T06:18:27.425Z,23.94
2023-04-12T06:19:27.663Z,23.95
2023-04-12T06:20:27.475Z,23.95
2023-04-12T06:21:27.476Z,23.96
2023-04-12T06:22:27.528Z,23.96
2023-04-12T06:23:27.511Z,23.98
2023-04-12T06:24:27.732Z,23.99
2023-04-12T06:25:27.522Z,24.02
2023-04-12T06:26:32.186Z,24.03
2023-04-12T06:27:28.498Z,24.04
2023-04-12T06:28:27.699Z,24.04
2023-04-12T06:29:27.652Z,24.05
2023-04-12T06:30:27.467Z,24.08
2023-04-12T06:31:27.513Z,24.11
2023-04-12T06:32:27.538Z,24.12
2023-04-12T06:33:27.479Z,24.13
2023-04-12T06:34:27.410Z,24.13
2023-04-12T06:35:27.489Z,24.15
2023-04-12T06:36:27.421Z,24.17
2023-04-12T06:37:27.420Z,24.18
2023-04-12T06:38:27.401Z,24.20
2023-04-12T06:39:27.408Z,24.18
2023-04-12T06:40:27.764Z,24.06
2023-04-12T06:41:27.417Z,23.87
2023-04-12T06:42:27.448Z,23.81
2023-04-12T06:43:27.381Z,23.75
2023-04-12T06:44:27.687Z,23.73
2023-04-12T06:45:27.394Z,23.71
2023-04-12T06:46:27.843Z,23.71
2023-04-12T06:47:27.421Z,23.72
2023-04-12T06:48:27.373Z,23.72
2023-04-12T06:49:27.696Z,23.72
2023-04-12T06:50:27.389Z,23.74
2023-04-12T06:51:27.915Z,23.76
2023-04-12T06:52:27.740Z,23.77
2023-04-12T06:53:27.754Z,23.79
2023-04-12T06:54:27.429Z,23.81
2023-04-12T06:55:27.414Z,23.80
2023-04-12T06:56:27.415Z,23.81
2023-04-12T06:57:27.376Z,23.82
2023-04-12T06:58:27.432Z,23.82
2023-04-12T06:59:27.760Z,23.82
2023-04-12T07:00:27.683Z,23.82
2023-04-12T07:01:27.563Z,23.82
2023-04-12T07:02:27.583Z,23.82
2023-04-12T07:03:27.595Z,23.83
2023-04-12T07:04:27.614Z,23.84
2023-04-12T07:05:27.631Z,23.85
2023-04-12T07:06:27.714Z,23.87
2023-04-12T07:07:27.829Z,23.88
2023-04-12T07:08:29.693Z,23.89
2023-04-12T07:09:28.656Z,23.91
2023-04-12T07:10:27.939Z,23.94
2023-04-12T07:11:28.042Z,23.95
2023-04-12T07:12:28.042Z,23.96
2023-04-12T07:13:28.174Z,23.97
2023-04-12T07:14:28.170Z,23.98
2023-04-12T07:15:28.268Z,23.99
2023-04-12T07:16:28.489Z,24.01
2023-04-12T07:17:28.295Z,24.02
2023-04-12T07:18:28.324Z,24.03
2023-04-12T07:19:28.726Z,24.04
2023-04-12T07:20:28.404Z,24.06
2023-04-12T07:21:28.433Z,24.08
2023-04-12T07:22:28.629Z,24.08
2023-04-12T07:23:28.667Z,24.10
2023-04-12T07:24:28.808Z,24.11
2023-04-12T07:25:28.653Z,24.13
2023-04-12T07:26:28.762Z,24.15
2023-04-12T07:27:28.753Z,24.16
2023-04-12T07:28:28.886Z,24.19
2023-04-12T07:29:28.876Z,24.21
2023-04-12T07:30:29.202Z,24.23
2023-04-12T07:31:28.884Z,24.24
2023-04-12T07:32:29.770Z,24.27
2023-04-12T07:33:29.134Z,24.28
2023-04-12T07:34:29.211Z,24.26
2023-04-12T07:35:29.050Z,24.19
2023-04-12T07:36:29.070Z,24.17
2023-04-12T07:37:29.201Z,24.17
2023-04-12T07:38:29.289Z,24.20
2023-04-12T07:39:29.256Z,24.21
2023-04-12T07:40:29.292Z,24.22
2023-04-12T07:41:29.381Z,24.22
2023-04-12T07:42:29.476Z,24.21
2023-04-12T07:43:29.490Z,24.23
2023-04-12T07:44:29.490Z,24.25
2023-04-12T07:45:29.543Z,24.27
2023-04-12T07:46:29.634Z,24.30
2023-04-12T07:47:29.646Z,24.31
2023-04-12T07:48:29.663Z,24.34
2023-04-12T07:49:29.747Z,24.36
2023-04-12T07:50:29.771Z,24.40
2023-04-12T07:51:29.783Z,24.42
2023-04-12T07:52:29.805Z,24.43
2023-04-12T07:53:30.217Z,24.45
2023-04-12T07:54:29.773Z,24.47
2023-04-12T07:55:29.800Z,24.51
2023-04-12T07:56:29.921Z,24.55
2023-04-12T07:57:29.936Z,24.57
2023-04-12T07:58:29.893Z,24.60
2023-04-12T07:59:29.908Z,24.64
2023-04-12T08:00:29.919Z,24.65
2023-04-12T08:01:29.925Z,24.66
2023-04-12T08:02:30.061Z,24.67
2023-04-12T08:03:29.960Z,24.70
2023-04-12T08:04:29.976Z,24.70
2023-04-12T08:05:29.912Z,24.72
2023-04-12T08:06:32.379Z,24.76
2023-04-12T08:07:29.947Z,24.77
2023-04-12T08:08:30.224Z,24.77
2023-04-12T08:09:29.912Z,24.80
2023-04-12T08:10:29.982Z,24.81
2023-04-12T08:11:29.880Z,24.83
2023-04-12T08:12:29.888Z,24.85
2023-04-12T08:13:29.929Z,24.86
2023-04-12T08:14:30.043Z,24.89
2023-04-12T08:16:48.689Z,24.87
2023-04-12T08:17:48.736Z,24.90
2023-04-12T08:18:48.769Z,24.90
2023-04-12T08:19:48.685Z,24.88
2023-04-12T08:20:48.672Z,24.91
2023-04-12T08:21:48.728Z,24.90
2023-04-12T08:22:48.741Z,24.92
2023-04-12T08:23:48.905Z,24.93
2023-04-12T08:24:48.655Z,24.94
2023-04-12T08:25:48.650Z,24.95
2023-04-12T08:26:48.936Z,24.96
2023-04-12T08:27:48.632Z,24.96
2023-04-12T08:28:48.643Z,24.98
2023-04-12T08:29:48.648Z,24.99
2023-04-12T08:30:48.664Z,25.00
2023-04-12T08:31:48.613Z,25.00
2023-04-12T08:32:48.623Z,25.01
2023-04-12T08:33:48.603Z,25.02
2023-04-12T08:34:48.592Z,25.02
2023-04-12T08:35:48.596Z,25.03
2023-04-12T08:36:48.596Z,25.03
2023-04-12T08:37:48.595Z,25.04
2023-04-12T08:38:48.598Z,25.04
2023-04-12T08:39:48.651Z,25.03
2023-04-12T08:40:48.574Z,25.03
2023-04-12T08:41:48.634Z,25.01
2023-04-12T08:42:48.543Z,25.01
2023-04-12T08:43:48.567Z,25.01
2023-04-12T08:44:48.573Z,25.02
2023-04-12T08:45:48.539Z,25.03
2023-04-12T08:46:48.633Z,25.05
2023-04-12T08:47:48.493Z,25.06
2023-04-12T08:48:48.599Z,25.10
2023-04-12T08:49:48.472Z,25.12
2023-04-12T08:50:50.506Z,25.14
2023-04-12T08:51:48.459Z,25.14
2023-04-12T08:52:48.488Z,25.10
2023-04-12T08:53:48.497Z,25.06
2023-04-12T08:54:48.444Z,25.02
2023-04-12T08:55:48.460Z,24.95
2023-04-12T08:56:48.561Z,24.90
2023-04-12T08:57:48.641Z,24.86
2023-04-12T08:58:48.741Z,24.86
2023-04-12T08:59:48.697Z,24.88
2023-04-12T09:00:48.708Z,24.87
2023-04-12T09:01:48.820Z,24.85
2023-04-12T09:02:49.058Z,24.90
2023-04-12T09:03:49.217Z,24.96
2023-04-12T09:04:48.920Z,25.00
2023-04-12T09:05:48.884Z,25.04
2023-04-12T09:06:48.924Z,25.06
2023-04-12T09:07:49.928Z,25.09
2023-04-12T09:08:49.543Z,25.09
2023-04-12T09:09:49.495Z,25.10
2023-04-12T09:10:49.166Z,25.14
2023-04-12T09:11:49.341Z,25.16
2023-04-12T09:12:50.928Z,25.17
2023-04-12T09:13:49.265Z,25.21
2023-04-12T09:14:49.261Z,25.22
2023-04-12T09:15:49.252Z,25.24
2023-04-12T09:16:49.278Z,25.26
2023-04-12T09:17:49.369Z,25.29
2023-04-12T09:18:49.277Z,25.32
2023-04-12T09:19:49.398Z,25.36
2023-04-12T09:20:49.199Z,25.37
2023-04-12T09:21:49.236Z,25.39
2023-04-12T09:22:49.206Z,25.42
2023-04-12T09:23:49.205Z,25.45
2023-04-12T09:24:49.228Z,25.47
2023-04-12T09:25:49.217Z,25.49
2023-04-12T09:26:49.230Z,25.52
2023-04-12T09:27:49.297Z,25.54
2023-04-12T09:28:49.214Z,25.57
2023-04-12T09:29:49.974Z,25.61
2023-04-12T09:30:49.148Z,25.64
2023-04-12T09:31:49.235Z,25.66
2023-04-12T09:32:49.313Z,25.67
2023-04-12T09:33:49.136Z,25.68
2023-04-12T09:34:49.430Z,25.67
2023-04-12T09:35:49.185Z,25.66
2023-04-12T09:36:49.180Z,25.67
2023-04-12T09:37:49.107Z,25.66
2023-04-12T09:38:49.206Z,25.64
2023-04-12T09:39:49.466Z,25.65
2023-04-12T09:40:49.173Z,25.70
2023-04-12T09:41:49.950Z,25.74
2023-04-12T09:42:49.060Z,25.72
2023-04-12T09:43:49.517Z,25.75
2023-04-12T09:44:49.105Z,25.76
2023-04-12T09:45:49.083Z,25.77
2023-04-12T09:46:49.200Z,25.80
2023-04-12T09:47:49.223Z,25.82
2023-04-12T09:48:49.430Z,25.84
2023-04-12T09:49:49.094Z,25.86
2023-04-12T09:50:49.090Z,25.87
2023-04-12T09:51:49.023Z,25.89
2023-04-12T09:52:49.039Z,25.92
2023-04-12T09:53:49.016Z,25.93
2023-04-12T09:54:49.031Z,25.95
2023-04-12T09:55:49.041Z,25.96
2023-04-12T09:56:49.894Z,25.98
2023-04-12T09:57:48.966Z,26.00
2023-04-12T09:58:49.507Z,26.03
2023-04-12T09:59:49.042Z,26.03
2023-04-12T10:00:49.008Z,26.05
2023-04-12T10:01:48.989Z,26.07
2023-04-12T10:02:50.333Z,26.08
2023-04-12T10:03:49.707Z,26.09
2023-04-12T10:04:49.044Z,26.10
2023-04-12T10:05:49.083Z,26.12
2023-04-12T10:06:49.048Z,26.11
2023-04-12T10:07:49.132Z,26.11
2023-04-12T10:08:49.144Z,26.09
2023-04-12T10:09:49.469Z,26.09
2023-04-12T10:10:49.238Z,26.10
2023-04-12T10:11:49.225Z,26.11
2023-04-12T10:12:49.315Z,26.09
2023-04-12T10:13:49.352Z,26.10
2023-04-12T10:14:49.367Z,26.08
2023-04-12T10:15:49.469Z,26.07
2023-04-12T10:16:49.494Z,26.08
2023-04-12T10:17:49.604Z,26.08
2023-04-12T10:18:49.524Z,26.09
2023-04-12T10:19:49.649Z,26.12
2023-04-12T10:20:49.600Z,26.12
2023-04-12T10:21:49.644Z,26.11
2023-04-12T10:22:49.698Z,26.12
2023-04-12T10:23:49.741Z,26.11
2023-04-12T10:24:49.863Z,26.11
2023-04-12T10:25:49.749Z,26.10
2023-04-12T10:26:49.871Z,26.11
2023-04-12T10:27:49.849Z,26.12
2023-04-12T10:28:49.896Z,26.04
2023-04-12T10:29:49.803Z,26.00
2023-04-12T10:30:49.889Z,26.00
2023-04-12T10:31:49.863Z,25.96
2023-04-12T10:32:49.883Z,25.89
2023-04-12T10:33:49.808Z,25.82
2023-04-12T10:34:49.929Z,25.77
2023-04-12T10:35:49.910Z,25.74
2023-04-12T10:36:49.879Z,25.70
2023-04-12T10:37:49.864Z,25.67
2023-04-12T10:38:49.891Z,25.62
2023-04-12T10:39:49.888Z,25.58
2023-04-12T10:40:49.912Z,25.55
2023-04-12T10:41:50.017Z,25.55
2023-04-12T10:42:49.952Z,25.54
2023-04-12T10:43:49.980Z,25.53
2023-04-12T10:44:49.981Z,25.52
2023-04-12T10:45:50.026Z,25.52
2023-04-12T10:46:50.029Z,25.49
2023-04-12T10:47:50.234Z,25.48
2023-04-12T10:48:50.226Z,25.46
2023-04-12T10:49:50.103Z,25.47
2023-04-12T10:50:50.175Z,25.46
2023-04-12T10:51:50.324Z,25.46
2023-04-12T10:52:50.226Z,25.47
2023-04-12T10:53:50.355Z,25.46
2023-04-12T10:54:50.294Z,25.46
2023-04-12T10:55:50.376Z,25.49
2023-04-12T10:56:50.476Z,25.47
2023-04-12T10:57:50.418Z,25.45
2023-04-12T10:58:50.518Z,25.44
2023-04-12T10:59:50.503Z,25.43
2023-04-12T11:00:50.629Z,25.44
2023-04-12T11:01:50.623Z,25.49
2023-04-12T11:02:50.698Z,25.52
2023-04-12T11:03:50.914Z,25.55
2023-04-12T11:04:50.734Z,25.52
2023-04-12T11:05:50.663Z,25.51
2023-04-12T11:06:51.799Z,25.49
2023-04-12T11:07:50.740Z,25.40
2023-04-12T11:08:50.751Z,25.33
2023-04-12T11:09:50.787Z,25.28
2023-04-12T11:10:50.820Z,25.21
2023-04-12T11:11:50.796Z,25.15
2023-04-12T11:12:50.957Z,25.12
2023-04-12T11:13:50.916Z,25.07
2023-04-12T11:14:51.060Z,25.02
2023-04-12T11:15:50.992Z,24.95
2023-04-12T11:16:51.090Z,24.88
2023-04-12T11:17:51.226Z,24.84
2023-04-12T11:18:51.171Z,24.82
2023-04-12T11:19:51.205Z,24.80
2023-04-12T11:20:51.247Z,24.78
2023-04-12T11:21:51.469Z,24.75
2023-04-12T11:22:51.332Z,24.74
2023-04-12T11:23:51.440Z,24.71
2023-04-12T11:24:51.478Z,24.69
2023-04-12T11:25:51.524Z,24.65
2023-04-12T11:26:51.629Z,24.66
2023-04-12T11:27:51.795Z,24.65
2023-04-12T11:28:51.702Z,24.63
2023-04-12T11:29:51.734Z,24.62
2023-04-12T11:30:51.810Z,24.62
2023-04-12T11:31:51.909Z,24.62
2023-04-12T11:32:51.951Z,24.63
2023-04-12T11:33:51.975Z,24.66
2023-04-12T11:34:52.052Z,24.68
2023-04-12T11:35:52.089Z,24.66
2023-04-12T11:36:52.159Z,24.62
2023-04-12T11:37:52.230Z,24.60
2023-04-12T11:38:52.292Z,24.59
2023-04-12T11:39:52.325Z,24.57
2023-04-12T11:40:52.335Z,24.57
2023-04-12T11:41:52.339Z,24.58
2023-04-12T11:42:52.352Z,24.58
2023-04-12T11:43:52.405Z,24.59
2023-04-12T11:44:57.424Z,24.62
2023-04-12T11:45:53.413Z,24.63
2023-04-12T11:46:52.372Z,24.62
2023-04-12T11:47:52.424Z,24.59
2023-04-12T11:48:52.393Z,24.60
2023-04-12T11:49:52.393Z,24.59
2023-04-12T11:51:03.977Z,24.58
2023-04-12T11:51:53.529Z,24.59
2023-04-12T11:52:52.419Z,24.60
2023-04-12T11:53:52.434Z,24.62
2023-04-12T11:54:52.331Z,24.65
2023-04-12T11:55:52.430Z,24.68
2023-04-12T11:56:52.330Z,24.68
2023-04-12T11:57:52.352Z,24.66
2023-04-12T11:58:52.662Z,24.66
2023-04-12T11:59:52.322Z,24.65
2023-04-12T12:00:52.322Z,24.63
2023-04-12T12:01:52.471Z,24.65
2023-04-12T12:03:06.591Z,24.67
2023-04-12T12:03:53.501Z,24.65
2023-04-12T12:04:52.618Z,24.66
2023-04-12T12:05:52.369Z,24.60
2023-04-12T12:06:52.379Z,24.63
2023-04-12T12:07:52.294Z,24.61
2023-04-12T12:08:52.219Z,24.62
2023-04-12T12:09:52.282Z,24.66
2023-04-12T12:11:52.229Z,24.81
2023-04-12T12:12:52.239Z,24.88
2023-04-12T12:13:52.254Z,24.94
2023-04-12T12:14:52.214Z,24.99
2023-04-12T12:15:52.254Z,25.06
2023-04-12T12:16:52.173Z,25.11
2023-04-12T12:17:52.364Z,25.15
2023-04-12T12:18:53.070Z,25.19
2023-04-12T12:19:52.292Z,25.24
2023-04-12T12:20:52.367Z,25.27
2023-04-12T12:21:52.390Z,25.31
2023-04-12T12:22:52.478Z,25.35
2023-04-12T12:23:52.515Z,25.37
2023-04-12T12:24:52.515Z,25.41
2023-04-12T12:25:57.920Z,25.42
2023-04-12T12:26:53.573Z,25.44
2023-04-12T12:27:52.725Z,25.47
2023-04-12T12:28:52.593Z,25.51
2023-04-12T12:29:52.523Z,25.53
2023-04-12T12:30:52.536Z,25.57
2023-04-12T12:31:52.608Z,25.61
2023-04-12T12:32:52.630Z,25.62
2023-04-12T12:33:52.582Z,25.65
2023-04-12T12:34:52.498Z,25.69
2023-04-12T12:35:52.522Z,25.74
2023-04-12T12:36:52.524Z,25.77
2023-04-12T12:37:52.557Z,25.77
2023-04-12T12:38:52.484Z,25.79
2023-04-12T12:39:52.598Z,25.80
2023-04-12T12:40:52.502Z,25.81
2023-04-12T12:41:52.428Z,25.82
2023-04-12T12:42:52.462Z,25.85
2023-04-12T12:43:52.454Z,25.88
2023-04-12T12:44:52.430Z,25.90
2023-04-12T12:45:52.429Z,25.92
2023-04-12T12:46:56.887Z,25.93
2023-04-12T12:47:53.617Z,25.94
2023-04-12T12:48:52.454Z,25.96
2023-04-12T12:49:52.405Z,25.99
2023-04-12T12:50:52.492Z,26.02
2023-04-12T12:51:52.373Z,26.06
2023-04-12T12:52:52.386Z,26.09
2023-04-12T12:53:52.396Z,26.09
2023-04-12T12:54:52.380Z,26.10